Terminal Aerodrome Forecast
Issued by NWS

Home | Current Version | Previous Version | Text Only | Print | Product List | Glossary On
Versions: 1 2 3 4 5 6 7 8 9 10 11 12 13
000
FTUS45 KREV 250520
TAFMMH
TAF
KMMH 250520Z 2506/2606 26005KT P6SM VCSH SCT035 BKN080
     FM251700 27008KT P6SM SCT100
     FM260400 VRB03KT P6SM BKN150=

USA.gov is the U.S. government's official web portal to all federal, state and local government web resources and services.